createdAt,value
2023-02-23T00:02:47.497Z,0.59
2023-02-23T00:07:52.306Z,0.56
2023-02-23T00:12:55.401Z,0.54
2023-02-23T00:17:58.941Z,0.48
2023-02-23T00:23:02.450Z,0.41
2023-02-23T00:28:07.505Z,0.36
2023-02-23T00:33:10.758Z,0.32
2023-02-23T00:38:16.406Z,0.28
2023-02-23T00:43:20.278Z,0.25
2023-02-23T00:48:24.427Z,0.21
2023-02-23T00:53:27.941Z,0.16
2023-02-23T00:58:31.601Z,0.11
2023-02-23T01:03:35.033Z,0.04
2023-02-23T01:08:40.841Z,-0.01
2023-02-23T01:13:44.961Z,-0.05
2023-02-23T01:18:49.088Z,-0.09
2023-02-23T01:23:52.908Z,-0.08
2023-02-23T01:28:58.047Z,-0.01
2023-02-23T01:34:02.157Z,0.04
2023-02-23T01:39:08.036Z,0.11
2023-02-23T01:44:14.333Z,0.15
2023-02-23T01:49:20.635Z,0.14
2023-02-23T01:54:31.313Z,0.06
2023-02-23T01:59:44.910Z,-0.05
2023-02-23T02:04:52.397Z,-0.13
2023-02-23T02:10:12.426Z,-0.18
2023-02-23T02:15:18.880Z,-0.25
2023-02-23T02:20:33.253Z,-0.29
2023-02-23T02:25:56.979Z,-0.34
2023-02-23T02:31:17.463Z,-0.41
2023-02-23T02:36:27.138Z,-0.50
2023-02-23T02:41:37.203Z,-0.53
2023-02-23T02:46:42.186Z,-0.60
2023-02-23T02:52:08.406Z,-0.63
2023-02-23T02:57:16.105Z,-0.62
2023-02-23T03:02:40.040Z,-0.61
2023-02-23T03:08:20.416Z,-0.58
2023-02-23T03:13:56.570Z,-0.56
2023-02-23T03:19:20.259Z,-0.55
2023-02-23T03:25:06.516Z,-0.49
2023-02-23T03:30:58.078Z,-0.35
2023-02-23T03:36:33.343Z,-0.16
2023-02-23T03:42:00.264Z,0.02
2023-02-23T03:47:24.917Z,0.21
2023-02-23T03:52:51.157Z,0.24
2023-02-23T03:58:15.108Z,0.24
2023-02-23T04:03:37.928Z,0.17
2023-02-23T04:09:00.544Z,0.11
2023-02-23T04:14:06.486Z,0.07
2023-02-23T04:19:09.782Z,0.05
2023-02-23T04:24:13.037Z,0.03
2023-02-23T04:29:16.342Z,0.03
2023-02-23T04:34:19.476Z,0.01
2023-02-23T04:39:22.681Z,0.01
2023-02-23T04:44:25.885Z,0.01
2023-02-23T04:49:29.038Z,0.02
2023-02-23T04:54:32.301Z,0.05
2023-02-23T04:59:35.987Z,0.04
2023-02-23T05:04:42.927Z,0.05
2023-02-23T05:09:46.185Z,0.04
2023-02-23T05:14:49.951Z,0.06
2023-02-23T05:19:53.794Z,0.13
2023-02-23T05:24:57.636Z,0.23
2023-02-23T05:30:01.664Z,0.33
2023-02-23T05:35:05.014Z,0.43
2023-02-23T05:40:08.658Z,0.49
2023-02-23T05:45:11.767Z,0.52
2023-02-23T05:50:14.871Z,0.52
2023-02-23T05:55:18.108Z,0.49
2023-02-23T06:00:21.561Z,0.45
2023-02-23T06:05:24.845Z,0.44
2023-02-23T06:10:28.159Z,0.43
2023-02-23T06:15:31.864Z,0.44
2023-02-23T06:20:35.850Z,0.49
2023-02-23T06:25:38.947Z,0.61
2023-02-23T06:30:42.409Z,0.77
2023-02-23T06:35:46.619Z,0.95
2023-02-23T06:40:49.845Z,1.09
2023-02-23T06:45:53.142Z,1.13
2023-02-23T06:50:58.422Z,1.15
2023-02-23T06:56:03.301Z,1.18
2023-02-23T07:01:06.804Z,1.16
2023-02-23T07:06:10.075Z,1.23
2023-02-23T07:11:15.106Z,1.32
2023-02-23T07:16:18.572Z,1.52
2023-02-23T07:21:21.698Z,1.79
2023-02-23T07:26:25.106Z,1.90
2023-02-23T07:31:28.843Z,2.00
2023-02-23T07:36:32.059Z,2.17
2023-02-23T07:41:35.621Z,2.43
2023-02-23T07:46:39.048Z,2.57
2023-02-23T07:51:42.461Z,2.51
2023-02-23T07:56:45.941Z,2.44
2023-02-23T08:01:49.347Z,2.40
2023-02-23T08:06:52.581Z,2.33
2023-02-23T08:11:55.800Z,2.31
2023-02-23T08:17:01.833Z,2.38
2023-02-23T08:22:06.484Z,2.51
2023-02-23T08:27:10.959Z,2.66
2023-02-23T08:32:14.472Z,2.81
2023-02-23T08:37:17.803Z,3.00
2023-02-23T08:42:21.302Z,3.18
2023-02-23T08:47:24.989Z,3.38
2023-02-23T08:52:29.129Z,3.43
2023-02-23T08:57:33.463Z,3.47
2023-02-23T09:02:36.743Z,3.47
2023-02-23T09:07:40.817Z,3.48
2023-02-23T09:12:44.051Z,3.59
2023-02-23T09:17:48.092Z,3.74
2023-02-23T09:22:51.530Z,3.87
2023-02-23T09:27:57.199Z,4.03
2023-02-23T09:33:00.522Z,4.21
2023-02-23T09:38:05.083Z,4.30
2023-02-23T09:43:11.717Z,4.36
2023-02-23T09:48:20.792Z,4.41
2023-02-23T09:53:40.821Z,4.39
2023-02-23T09:58:44.890Z,4.37
2023-02-23T10:04:11.122Z,4.42
2023-02-23T10:09:19.561Z,4.49
2023-02-23T10:14:22.916Z,4.56
2023-02-23T10:19:32.549Z,4.63
2023-02-23T10:24:57.654Z,4.72
2023-02-23T10:30:23.185Z,4.87
2023-02-23T10:35:27.737Z,5.09
2023-02-23T10:40:33.217Z,5.19
2023-02-23T10:45:39.783Z,5.28
2023-02-23T10:50:45.879Z,5.34
2023-02-23T10:56:13.907Z,5.37
2023-02-23T11:01:33.001Z,5.41
2023-02-23T11:06:40.780Z,5.45
2023-02-23T11:11:55.668Z,5.47
2023-02-23T11:16:59.933Z,5.47
2023-02-23T11:22:07.150Z,5.50
2023-02-23T11:27:21.161Z,5.54
2023-02-23T11:32:28.336Z,5.60
2023-02-23T11:37:31.653Z,5.78
2023-02-23T11:42:34.905Z,5.94
2023-02-23T11:47:44.779Z,6.09
2023-02-23T11:52:51.839Z,6.19
2023-02-23T11:58:08.438Z,6.23
2023-02-23T12:03:17.592Z,6.26
2023-02-23T12:08:28.080Z,6.27
2023-02-23T12:13:34.566Z,6.29
2023-02-23T12:18:40.462Z,6.36
2023-02-23T12:23:48.859Z,6.43
2023-02-23T12:29:10.352Z,6.46
2023-02-23T12:34:19.400Z,6.46
2023-02-23T12:39:31.943Z,6.47
2023-02-23T12:44:40.722Z,6.53
2023-02-23T12:49:52.893Z,6.54
2023-02-23T12:54:56.263Z,6.54
2023-02-23T13:00:24.288Z,6.54
2023-02-23T13:05:50.704Z,6.51
2023-02-23T13:10:54.261Z,6.52
2023-02-23T13:16:17.761Z,6.57
2023-02-23T13:21:28.573Z,6.61
2023-02-23T13:26:54.749Z,6.58
2023-02-23T13:32:00.845Z,6.58
2023-02-23T13:37:06.114Z,6.62
2023-02-23T13:42:18.454Z,6.65
2023-02-23T13:47:33.753Z,6.70
2023-02-23T13:52:42.223Z,6.75
2023-02-23T13:57:46.337Z,6.76
2023-02-23T14:02:50.534Z,6.75
2023-02-23T14:07:56.196Z,6.75
2023-02-23T14:13:35.232Z,6.75
2023-02-23T14:19:19.899Z,6.75
2023-02-23T14:24:24.195Z,6.75
2023-02-23T14:29:29.146Z,6.74
2023-02-23T14:34:46.130Z,6.74
2023-02-23T14:39:50.837Z,6.73
2023-02-23T14:44:55.540Z,6.73
2023-02-23T14:50:00.513Z,6.70
2023-02-23T14:55:07.774Z,6.67
2023-02-23T15:00:39.110Z,6.63
2023-02-23T15:05:44.045Z,6.58
2023-02-23T15:10:49.187Z,6.54
2023-02-23T15:15:53.168Z,6.50
2023-02-23T15:21:02.521Z,6.46
2023-02-23T15:26:40.524Z,6.40
2023-02-23T15:31:52.724Z,6.32
2023-02-23T15:36:58.357Z,6.25
2023-02-23T15:42:02.174Z,6.17
2023-02-23T15:47:09.867Z,6.07
2023-02-23T15:52:19.565Z,6.01
2023-02-23T15:57:30.526Z,5.96
2023-02-23T16:02:35.951Z,5.96
2023-02-23T16:07:43.320Z,5.97
2023-02-23T16:12:48.921Z,5.92
2023-02-23T16:17:57.893Z,5.85
2023-02-23T16:23:02.938Z,5.75
2023-02-23T16:28:09.886Z,5.64
2023-02-23T16:33:21.958Z,5.50
2023-02-23T16:38:34.037Z,5.38
2023-02-23T16:43:37.597Z,5.27
2023-02-23T16:48:40.854Z,5.16
2023-02-23T16:53:44.624Z,5.06
2023-02-23T16:58:54.045Z,4.97
2023-02-23T17:03:59.227Z,4.86
2023-02-23T17:09:02.562Z,4.80
2023-02-23T17:14:05.862Z,4.69
2023-02-23T17:19:08.990Z,4.60
2023-02-23T17:24:12.209Z,4.55
2023-02-23T17:29:15.700Z,4.50
2023-02-23T17:34:19.217Z,4.47
2023-02-23T17:39:22.547Z,4.45
2023-02-23T17:44:25.917Z,4.44
2023-02-23T17:49:29.082Z,4.43
2023-02-23T17:54:32.346Z,4.43
2023-02-23T17:59:35.627Z,4.44
2023-02-23T18:04:38.991Z,4.43
2023-02-23T18:09:42.468Z,4.46
2023-02-23T18:14:46.195Z,4.52
2023-02-23T18:19:51.309Z,4.62
2023-02-23T18:24:57.369Z,4.70
2023-02-23T18:30:01.565Z,4.78
2023-02-23T18:35:05.013Z,4.83
2023-02-23T18:40:08.664Z,4.81
2023-02-23T18:45:13.098Z,4.77
2023-02-23T18:50:19.488Z,4.67
2023-02-23T18:55:23.553Z,4.59
2023-02-23T19:00:27.477Z,4.54
2023-02-23T19:05:31.109Z,4.47
2023-02-23T19:10:34.655Z,4.42
2023-02-23T19:15:40.957Z,4.40
2023-02-23T19:20:44.203Z,4.37
2023-02-23T19:25:49.109Z,4.35
2023-02-23T19:31:00.558Z,4.32
2023-02-23T19:36:05.494Z,4.30
2023-02-23T19:41:09.836Z,4.29
2023-02-23T19:46:17.347Z,4.25
2023-02-23T19:51:21.194Z,4.23
2023-02-23T19:56:25.472Z,4.28
2023-02-23T20:01:30.074Z,4.37
2023-02-23T20:06:34.987Z,4.46
2023-02-23T20:11:38.517Z,4.53
2023-02-23T20:16:41.813Z,4.53
2023-02-23T20:21:45.135Z,4.48
2023-02-23T20:26:49.515Z,4.40
2023-02-23T20:31:52.878Z,4.29
2023-02-23T20:36:56.234Z,4.14
2023-02-23T20:41:59.581Z,4.05
2023-02-23T20:47:03.341Z,3.95
2023-02-23T20:52:06.489Z,3.86
2023-02-23T20:57:09.775Z,3.78
2023-02-23T21:02:15.197Z,3.69
2023-02-23T21:07:18.526Z,3.64
2023-02-23T21:12:22.094Z,3.58
2023-02-23T21:17:25.501Z,3.53
2023-02-23T21:22:28.808Z,3.49
2023-02-23T21:27:32.602Z,3.45
2023-02-23T21:32:41.434Z,3.46
2023-02-23T21:37:45.408Z,3.51
2023-02-23T21:42:49.310Z,3.63
2023-02-23T21:47:55.614Z,3.76
2023-02-23T21:52:59.013Z,3.85
2023-02-23T21:58:02.949Z,3.82
2023-02-23T22:03:06.571Z,3.75
2023-02-23T22:08:15.850Z,3.67
2023-02-23T22:13:22.206Z,3.61
2023-02-23T22:18:25.458Z,3.55
2023-02-23T22:23:28.777Z,3.48
2023-02-23T22:28:33.238Z,3.44
2023-02-23T22:33:38.042Z,3.42
2023-02-23T22:38:41.779Z,3.38
2023-02-23T22:43:46.224Z,3.34
2023-02-23T22:48:52.544Z,3.31
2023-02-23T22:53:55.727Z,3.28
2023-02-23T22:59:06.552Z,3.24
2023-02-23T23:04:10.645Z,3.22
2023-02-23T23:09:16.589Z,3.21
2023-02-23T23:14:24.494Z,3.20
2023-02-23T23:19:29.329Z,3.20
2023-02-23T23:24:33.025Z,3.20
2023-02-23T23:29:38.403Z,3.21
2023-02-23T23:34:45.309Z,3.25
2023-02-23T23:40:00.341Z,3.30
2023-02-23T23:45:06.211Z,3.35
2023-02-23T23:50:10.915Z,3.44
2023-02-23T23:55:15.262Z,3.60
